createdAt,value
2022-08-19T00:00:29.313Z,78.92
2022-08-19T00:02:01.202Z,78.95
2022-08-19T00:03:33.082Z,80.00
2022-08-19T00:05:05.441Z,79.62
2022-08-19T00:06:38.774Z,80.43
2022-08-19T00:08:10.603Z,79.90
2022-08-19T00:09:42.448Z,79.18
2022-08-19T00:11:18.721Z,79.90
2022-08-19T00:12:57.734Z,79.04
2022-08-19T00:14:32.555Z,79.57
2022-08-19T00:16:07.063Z,79.97
2022-08-19T00:17:41.984Z,80.16
2022-08-19T00:19:14.699Z,80.52
2022-08-19T00:20:46.508Z,80.14
2022-08-19T00:22:19.222Z,80.21
2022-08-19T00:23:51.500Z,80.19
2022-08-19T00:25:30.240Z,81.00
2022-08-19T00:27:25.795Z,80.43
2022-08-19T00:28:55.767Z,80.87
2022-08-19T00:30:28.950Z,81.23
2022-08-19T00:32:00.955Z,81.53
2022-08-19T00:33:33.646Z,81.93
2022-08-19T00:35:06.091Z,82.09
2022-08-19T00:36:38.675Z,81.92
2022-08-19T00:38:10.452Z,82.26
2022-08-19T00:39:42.342Z,82.05
2022-08-19T00:41:15.990Z,82.27
2022-08-19T00:42:48.161Z,81.64
2022-08-19T00:44:26.673Z,81.57
2022-08-19T00:45:59.220Z,81.37
2022-08-19T00:47:31.069Z,82.33
2022-08-19T00:49:08.113Z,83.12
2022-08-19T00:50:51.864Z,82.64
2022-08-19T00:52:33.494Z,82.55
2022-08-19T00:54:06.122Z,82.03
2022-08-19T00:55:37.925Z,82.57
2022-08-19T00:57:16.037Z,82.36
2022-08-19T00:58:47.919Z,82.62
2022-08-19T01:00:20.680Z,82.84
2022-08-19T01:01:52.969Z,83.31
2022-08-19T01:03:25.111Z,83.57
2022-08-19T01:04:57.099Z,83.55
2022-08-19T01:06:28.946Z,83.02
2022-08-19T01:08:02.568Z,83.00
2022-08-19T01:09:35.030Z,83.77
2022-08-19T01:11:08.139Z,83.16
2022-08-19T01:12:42.454Z,83.27
2022-08-19T01:14:14.792Z,83.71
2022-08-19T01:15:51.654Z,83.34
2022-08-19T01:17:23.725Z,83.57
2022-08-19T01:18:57.535Z,83.67
2022-08-19T01:20:29.638Z,83.37
2022-08-19T01:22:16.631Z,83.07
2022-08-19T01:23:48.980Z,83.22
2022-08-19T01:25:25.127Z,83.33
2022-08-19T01:26:58.508Z,83.34
2022-08-19T01:28:33.720Z,83.30
2022-08-19T01:30:07.953Z,83.67
2022-08-19T01:31:40.313Z,83.35
2022-08-19T01:33:12.566Z,83.92
2022-08-19T01:34:48.071Z,83.90
2022-08-19T01:36:27.091Z,83.90
2022-08-19T01:38:01.864Z,83.89
2022-08-19T01:39:34.025Z,84.20
2022-08-19T01:41:10.847Z,84.60
2022-08-19T01:42:43.174Z,84.42
2022-08-19T01:44:19.135Z,84.68
2022-08-19T01:45:52.116Z,84.64
2022-08-19T01:47:24.029Z,84.98
2022-08-19T01:48:56.065Z,85.00
2022-08-19T01:50:28.628Z,84.84
2022-08-19T01:52:02.033Z,85.43
2022-08-19T01:53:34.129Z,85.78
2022-08-19T01:55:09.369Z,85.24
2022-08-19T01:56:41.372Z,85.24
2022-08-19T01:58:20.085Z,86.07
2022-08-19T01:59:52.705Z,85.52
2022-08-19T02:01:24.573Z,85.27
2022-08-19T02:03:03.184Z,84.86
2022-08-19T02:04:35.617Z,85.38
2022-08-19T02:06:07.556Z,84.98
2022-08-19T02:07:41.316Z,85.57
2022-08-19T02:09:13.462Z,86.14
2022-08-19T02:10:45.630Z,86.14
2022-08-19T02:12:17.562Z,86.48
2022-08-19T02:13:50.512Z,86.91
2022-08-19T02:15:23.029Z,86.76
2022-08-19T02:16:54.811Z,88.35
2022-08-19T02:18:28.052Z,87.56
2022-08-19T02:20:00.214Z,87.88
2022-08-19T02:21:32.302Z,87.69
2022-08-19T02:23:04.665Z,88.61
2022-08-19T02:24:36.534Z,88.42
2022-08-19T02:26:08.349Z,88.92
2022-08-19T02:27:41.040Z,88.44
2022-08-19T02:29:12.807Z,88.52
2022-08-19T02:30:44.737Z,89.73
2022-08-19T02:32:17.562Z,89.72
2022-08-19T02:33:49.336Z,90.21
2022-08-19T02:35:21.845Z,90.21
2022-08-19T02:36:53.735Z,91.54
2022-08-19T02:38:28.707Z,91.63
2022-08-19T02:40:00.833Z,92.85
2022-08-19T02:41:34.135Z,93.67
2022-08-19T02:43:08.635Z,94.47
2022-08-19T02:44:40.483Z,95.56
2022-08-19T02:46:22.289Z,95.23
2022-08-19T02:47:54.206Z,96.24
2022-08-19T02:49:26.034Z,96.28
2022-08-19T02:50:57.873Z,96.48
2022-08-19T02:52:29.708Z,96.52
2022-08-19T02:54:02.419Z,96.50
2022-08-19T02:55:45.905Z,96.84
2022-08-19T02:57:18.150Z,96.18
2022-08-19T02:58:50.305Z,96.32
2022-08-19T03:00:25.191Z,96.28
2022-08-19T03:01:57.228Z,97.02
2022-08-19T03:03:29.129Z,96.44
2022-08-19T03:05:00.965Z,96.09
2022-08-19T03:06:33.735Z,94.76
2022-08-19T03:08:06.780Z,95.17
2022-08-19T03:09:38.983Z,94.75
2022-08-19T03:11:18.606Z,94.97
2022-08-19T03:12:50.436Z,95.08
2022-08-19T03:14:22.331Z,95.32
2022-08-19T03:15:54.141Z,95.08
2022-08-19T03:17:26.166Z,95.40
2022-08-19T03:19:02.117Z,95.27
2022-08-19T03:20:33.987Z,94.99
2022-08-19T03:22:05.968Z,94.56
2022-08-19T03:23:37.896Z,94.27
2022-08-19T03:25:10.221Z,94.54
2022-08-19T03:26:44.802Z,94.80
2022-08-19T03:28:16.686Z,93.53
2022-08-19T03:29:49.084Z,93.62
2022-08-19T03:31:43.423Z,93.93
2022-08-19T03:33:18.258Z,93.59
2022-08-19T03:35:00.554Z,94.38
2022-08-19T03:36:32.451Z,94.30
2022-08-19T03:38:05.681Z,93.99
2022-08-19T03:39:39.930Z,94.40
2022-08-19T03:41:19.399Z,94.47
2022-08-19T03:42:51.193Z,94.61
2022-08-19T03:44:23.696Z,94.56
2022-08-19T03:46:05.190Z,95.28
2022-08-19T03:47:38.195Z,95.86
2022-08-19T03:49:10.214Z,95.78
2022-08-19T03:50:42.133Z,95.90
2022-08-19T03:52:14.537Z,95.98
2022-08-19T03:53:46.915Z,96.31
2022-08-19T03:55:19.837Z,96.69
2022-08-19T03:56:54.595Z,96.07
2022-08-19T03:58:29.743Z,96.60
2022-08-19T04:00:12.789Z,97.51
2022-08-19T04:01:45.314Z,97.89
2022-08-19T04:03:19.722Z,98.02
2022-08-19T04:04:54.596Z,99.05
2022-08-19T04:06:30.109Z,99.21
2022-08-19T04:08:02.017Z,99.39
2022-08-19T04:09:35.532Z,99.64
2022-08-19T04:11:09.385Z,99.88
2022-08-19T04:12:41.585Z,99.65
2022-08-19T04:14:16.634Z,99.72
2022-08-19T04:15:48.611Z,99.51
2022-08-19T04:17:20.416Z,99.16
2022-08-19T04:18:52.316Z,98.70
2022-08-19T04:20:24.181Z,98.63
2022-08-19T04:21:57.968Z,97.71
2022-08-19T04:23:29.774Z,98.61
2022-08-19T04:25:01.575Z,98.00
2022-08-19T04:26:35.840Z,97.65
2022-08-19T04:28:08.156Z,97.57
2022-08-19T04:29:41.507Z,97.35
2022-08-19T04:31:15.551Z,97.42
2022-08-19T04:32:47.457Z,96.70
2022-08-19T04:34:23.369Z,96.41
2022-08-19T04:35:55.255Z,95.52
2022-08-19T04:37:31.850Z,96.12
2022-08-19T04:39:11.226Z,95.55
2022-08-19T04:41:03.476Z,95.70
2022-08-19T04:42:41.277Z,96.01
2022-08-19T04:44:13.912Z,96.52
2022-08-19T04:45:46.880Z,96.56
2022-08-19T04:47:18.678Z,96.95
2022-08-19T04:49:13.695Z,97.39
2022-08-19T04:50:45.773Z,97.56
2022-08-19T04:52:17.580Z,98.10
2022-08-19T04:53:49.327Z,97.25
2022-08-19T04:55:21.202Z,98.45
2022-08-19T04:56:54.258Z,98.55
2022-08-19T04:58:28.416Z,98.83
2022-08-19T05:00:00.244Z,99.46
2022-08-19T05:01:34.093Z,99.16
2022-08-19T05:03:07.757Z,100.00
2022-08-19T05:04:40.454Z,100.00
2022-08-19T05:06:15.185Z,100.00
2022-08-19T05:07:47.059Z,100.00
2022-08-19T05:09:18.907Z,100.00
2022-08-19T05:10:52.445Z,100.00
2022-08-19T05:12:26.764Z,100.00
2022-08-19T05:14:02.713Z,100.00
2022-08-19T05:15:35.895Z,100.00
2022-08-19T05:17:27.735Z,100.00
2022-08-19T05:19:19.580Z,100.00
2022-08-19T05:21:10.105Z,100.00
2022-08-19T05:22:43.766Z,100.00
2022-08-19T05:24:16.051Z,100.00
2022-08-19T05:25:47.950Z,100.00
2022-08-19T05:27:19.842Z,100.00
2022-08-19T05:28:54.587Z,100.00
2022-08-19T05:30:42.359Z,100.00
2022-08-19T05:32:18.506Z,100.00
2022-08-19T05:33:51.135Z,100.00
2022-08-19T05:35:24.912Z,100.00
2022-08-19T05:36:59.066Z,100.00
2022-08-19T05:38:31.212Z,100.00
2022-08-19T05:40:04.166Z,100.00
2022-08-19T05:41:36.193Z,100.00
2022-08-19T05:43:08.566Z,100.00
2022-08-19T05:44:45.997Z,100.00
2022-08-19T05:46:19.872Z,100.00
2022-08-19T05:47:59.897Z,100.00
2022-08-19T05:49:32.532Z,100.00
2022-08-19T05:51:07.535Z,100.00
2022-08-19T05:52:43.575Z,100.00
2022-08-19T05:54:15.675Z,100.00
2022-08-19T05:55:47.541Z,100.00
2022-08-19T05:57:20.205Z,100.00
2022-08-19T05:58:52.038Z,100.00
2022-08-19T06:00:24.857Z,100.00
2022-08-19T06:01:58.110Z,100.00
2022-08-19T06:03:29.905Z,100.00
2022-08-19T06:05:02.609Z,100.00
2022-08-19T06:06:35.341Z,100.00
2022-08-19T06:08:08.691Z,100.00
2022-08-19T06:09:50.849Z,100.00
2022-08-19T06:12:05.548Z,100.00
2022-08-19T06:13:37.371Z,100.00
2022-08-19T06:15:12.232Z,100.00
2022-08-19T06:16:44.846Z,100.00
2022-08-19T06:18:17.732Z,100.00
2022-08-19T06:19:51.101Z,100.00
2022-08-19T06:21:25.887Z,100.00
2022-08-19T06:22:57.833Z,100.00
2022-08-19T06:24:30.604Z,100.00
2022-08-19T06:26:02.256Z,100.00
2022-08-19T06:27:34.820Z,100.00
2022-08-19T06:29:07.541Z,100.00
2022-08-19T06:30:39.368Z,100.00
2022-08-19T06:32:12.253Z,100.00
2022-08-19T06:33:45.953Z,100.00
2022-08-19T06:35:18.032Z,100.00
2022-08-19T06:36:52.240Z,100.00
2022-08-19T06:38:24.587Z,100.00
2022-08-19T06:39:56.508Z,100.00
2022-08-19T06:41:29.505Z,100.00
2022-08-19T06:43:03.665Z,100.00
2022-08-19T06:44:43.142Z,100.00
2022-08-19T06:46:19.769Z,100.00
2022-08-19T06:47:55.414Z,100.00
2022-08-19T06:49:28.731Z,99.90
2022-08-19T06:51:00.786Z,99.43
2022-08-19T06:52:36.521Z,98.66
2022-08-19T06:54:19.537Z,99.02
2022-08-19T06:55:58.592Z,97.59
2022-08-19T06:57:33.740Z,96.29
2022-08-19T06:59:09.489Z,96.18
2022-08-19T07:00:41.619Z,95.83
2022-08-19T07:02:13.557Z,95.49
2022-08-19T07:03:45.545Z,94.96
2022-08-19T07:05:18.865Z,95.20
2022-08-19T07:06:59.156Z,94.53
2022-08-19T07:08:31.088Z,95.43
2022-08-19T07:10:07.318Z,94.58
2022-08-19T07:11:39.881Z,93.76
2022-08-19T07:13:12.618Z,93.13
2022-08-19T07:14:44.830Z,92.72
2022-08-19T07:16:21.027Z,91.75
2022-08-19T07:18:00.751Z,91.36
2022-08-19T07:19:33.653Z,91.41
2022-08-19T07:21:05.783Z,91.50
2022-08-19T07:22:41.530Z,91.76
2022-08-19T07:24:13.535Z,90.90
2022-08-19T07:25:53.157Z,89.14
2022-08-19T07:27:25.501Z,89.94
2022-08-19T07:28:58.639Z,89.73
2022-08-19T07:30:31.511Z,88.92
2022-08-19T07:32:05.480Z,88.18
2022-08-19T07:33:44.192Z,88.20
2022-08-19T07:35:16.026Z,87.93
2022-08-19T07:36:48.494Z,87.51
2022-08-19T07:38:20.336Z,88.61
2022-08-19T07:39:52.244Z,89.01
2022-08-19T07:41:26.252Z,89.13
2022-08-19T07:42:58.271Z,88.18
2022-08-19T07:44:30.360Z,87.99
2022-08-19T07:46:02.360Z,87.76
2022-08-19T07:47:49.489Z,87.99
2022-08-19T07:49:23.995Z,88.85
2022-08-19T07:50:58.557Z,88.51
2022-08-19T07:52:30.385Z,88.53
2022-08-19T07:54:02.253Z,88.15
2022-08-19T07:55:41.655Z,88.10
2022-08-19T07:57:15.314Z,88.06
2022-08-19T07:58:49.781Z,87.56
2022-08-19T08:00:24.525Z,88.13
2022-08-19T08:01:57.465Z,88.26
2022-08-19T08:03:47.725Z,87.92
2022-08-19T08:05:41.796Z,87.52
2022-08-19T08:07:34.857Z,86.72
2022-08-19T08:09:13.151Z,87.70
2022-08-19T08:10:48.705Z,86.80
2022-08-19T08:12:34.613Z,86.04
2022-08-19T08:14:07.604Z,85.71
2022-08-19T08:15:59.596Z,85.18
2022-08-19T08:17:49.455Z,84.23
2022-08-19T08:19:25.924Z,83.95
2022-08-19T08:20:58.914Z,83.49
2022-08-19T08:22:52.753Z,82.14
2022-08-19T08:24:28.555Z,79.95
2022-08-19T08:26:01.349Z,79.90
2022-08-19T08:27:37.796Z,79.12
2022-08-19T08:29:12.427Z,77.84
2022-08-19T08:30:46.826Z,77.07
2022-08-19T08:32:19.110Z,76.28
2022-08-19T08:33:51.025Z,76.37
2022-08-19T08:35:24.679Z,76.23
2022-08-19T08:36:57.031Z,75.77
2022-08-19T08:38:30.062Z,73.58
2022-08-19T08:40:29.563Z,75.26
2022-08-19T08:42:17.795Z,74.19
2022-08-19T08:43:53.146Z,76.47
2022-08-19T08:45:25.558Z,73.48
2022-08-19T08:47:00.797Z,73.45
2022-08-19T08:48:52.550Z,73.11
2022-08-19T08:50:36.828Z,71.33
2022-08-19T08:52:14.790Z,72.10
2022-08-19T08:53:48.124Z,70.96
2022-08-19T08:55:24.015Z,72.17
2022-08-19T08:56:56.214Z,71.12
2022-08-19T08:58:46.630Z,69.72
2022-08-19T09:00:29.066Z,70.24
2022-08-19T09:02:01.462Z,68.87
2022-08-19T09:03:33.400Z,70.15
2022-08-19T09:05:05.654Z,68.45
2022-08-19T09:07:27.134Z,68.35
2022-08-19T09:09:11.887Z,66.42
2022-08-19T09:10:48.171Z,67.54
2022-08-19T09:12:35.979Z,66.53
2022-08-19T09:14:35.040Z,67.36
2022-08-19T09:16:14.054Z,66.96
2022-08-19T09:17:46.024Z,64.97
2022-08-19T09:19:22.446Z,64.71
2022-08-19T09:20:54.474Z,65.34
2022-08-19T09:22:27.928Z,64.07
2022-08-19T09:24:00.280Z,64.91
2022-08-19T09:25:33.648Z,64.15
2022-08-19T09:27:18.572Z,63.90
2022-08-19T09:28:53.538Z,64.23
2022-08-19T09:30:28.192Z,62.91
2022-08-19T09:32:03.401Z,64.03
2022-08-19T09:33:35.238Z,63.21
2022-08-19T09:35:08.826Z,62.34
2022-08-19T09:36:42.001Z,61.14
2022-08-19T09:38:13.931Z,59.66
2022-08-19T09:39:45.819Z,60.31
2022-08-19T09:41:19.930Z,61.16
2022-08-19T09:42:52.603Z,59.23
2022-08-19T09:44:24.649Z,59.33
2022-08-19T09:45:59.467Z,58.40
2022-08-19T09:47:31.308Z,60.51
2022-08-19T09:49:06.669Z,58.62
2022-08-19T09:50:51.494Z,58.22
2022-08-19T09:52:24.112Z,58.74
2022-08-19T09:53:59.656Z,56.60
2022-08-19T09:55:32.798Z,57.15
2022-08-19T09:57:04.870Z,57.39
2022-08-19T09:58:40.439Z,56.22
2022-08-19T10:00:12.607Z,54.49
2022-08-19T10:01:44.487Z,55.94
2022-08-19T10:03:17.846Z,54.37
2022-08-19T10:05:08.330Z,51.98
2022-08-19T10:06:46.471Z,51.58
2022-08-19T10:08:26.762Z,51.25
2022-08-19T10:09:59.335Z,52.60
2022-08-19T10:11:39.968Z,52.22
2022-08-19T10:13:14.778Z,51.86
2022-08-19T10:14:47.222Z,53.88
2022-08-19T10:16:23.146Z,53.57
2022-08-19T10:18:00.926Z,52.38
2022-08-19T10:19:37.047Z,52.48
2022-08-19T10:21:18.217Z,53.56
2022-08-19T10:22:51.791Z,53.84
2022-08-19T10:24:25.425Z,54.59
2022-08-19T10:26:01.034Z,53.42
2022-08-19T10:27:32.873Z,54.56
2022-08-19T10:29:06.586Z,53.76
2022-08-19T10:30:41.777Z,54.59
2022-08-19T10:32:34.232Z,54.50
2022-08-19T10:34:06.636Z,53.37
2022-08-19T10:35:56.435Z,53.69
2022-08-19T10:37:32.474Z,53.71
2022-08-19T10:39:08.652Z,53.08
2022-08-19T10:40:41.167Z,54.72
2022-08-19T10:42:14.339Z,55.00
2022-08-19T10:43:46.813Z,53.53
2022-08-19T10:45:18.766Z,53.48
2022-08-19T10:46:52.721Z,52.81
2022-08-19T10:48:25.238Z,54.77
2022-08-19T10:50:15.849Z,52.01
2022-08-19T10:52:06.137Z,52.32
2022-08-19T10:53:42.149Z,52.68
2022-08-19T10:55:32.716Z,50.31
2022-08-19T10:57:05.415Z,50.87
2022-08-19T10:58:37.273Z,49.10
2022-08-19T11:00:09.840Z,48.05
2022-08-19T11:01:42.343Z,48.56
2022-08-19T11:03:14.375Z,48.00
2022-08-19T11:04:46.176Z,47.90
2022-08-19T11:06:18.708Z,47.27
2022-08-19T11:07:52.312Z,48.94
2022-08-19T11:09:33.354Z,48.52
2022-08-19T11:11:07.337Z,47.88
2022-08-19T11:12:42.632Z,50.52
2022-08-19T11:14:17.300Z,51.08
2022-08-19T11:16:08.235Z,47.59
2022-08-19T11:17:42.552Z,49.87
2022-08-19T11:19:17.250Z,50.37
2022-08-19T11:20:50.156Z,46.59
2022-08-19T11:22:21.983Z,45.32
2022-08-19T11:23:56.811Z,45.17
2022-08-19T11:25:29.097Z,45.59
2022-08-19T11:27:10.251Z,46.75
2022-08-19T11:28:42.344Z,50.06
2022-08-19T11:30:14.925Z,46.34
2022-08-19T11:31:47.390Z,46.41
2022-08-19T11:33:20.140Z,46.59
2022-08-19T11:34:52.046Z,45.56
2022-08-19T11:36:24.870Z,44.88
2022-08-19T11:37:59.055Z,45.01
2022-08-19T11:39:32.959Z,43.37
2022-08-19T11:41:08.415Z,43.74
2022-08-19T11:42:58.360Z,46.32
2022-08-19T11:44:31.461Z,44.18
2022-08-19T11:46:08.092Z,46.08
2022-08-19T11:47:40.193Z,46.03
2022-08-19T11:49:14.207Z,46.57
2022-08-19T11:50:46.465Z,43.01
2022-08-19T11:52:18.266Z,42.72
2022-08-19T11:53:51.760Z,44.63
2022-08-19T11:55:23.952Z,41.98
2022-08-19T11:56:55.804Z,42.99
2022-08-19T11:58:30.304Z,42.33
2022-08-19T12:00:02.727Z,42.04
2022-08-19T12:01:36.705Z,43.00
2022-08-19T12:03:08.878Z,43.84
2022-08-19T12:04:40.720Z,41.96
2022-08-19T12:06:15.508Z,44.49
2022-08-19T12:07:47.406Z,43.59
2022-08-19T12:09:19.899Z,43.94
2022-08-19T12:10:52.138Z,44.83
2022-08-19T12:12:25.721Z,43.19
2022-08-19T12:13:58.234Z,43.10
2022-08-19T12:15:37.022Z,45.06
2022-08-19T12:17:10.217Z,44.13
2022-08-19T12:18:44.873Z,43.75
2022-08-19T12:20:18.158Z,46.10
2022-08-19T12:21:50.554Z,46.25
2022-08-19T12:23:22.362Z,46.59
2022-08-19T12:24:54.918Z,46.27
2022-08-19T12:26:27.183Z,47.42
2022-08-19T12:27:59.824Z,45.29
2022-08-19T12:29:31.989Z,44.57
2022-08-19T12:31:04.376Z,46.58
2022-08-19T12:32:36.659Z,45.57
2022-08-19T12:34:08.561Z,47.60
2022-08-19T12:35:46.443Z,47.00
2022-08-19T12:37:18.292Z,47.81
2022-08-19T12:38:50.361Z,44.27
2022-08-19T12:40:22.217Z,45.30
2022-08-19T12:41:55.144Z,46.52
2022-08-19T12:43:27.912Z,43.86
2022-08-19T12:44:59.786Z,46.11
2022-08-19T12:46:32.616Z,46.11
2022-08-19T12:48:33.350Z,45.31
2022-08-19T12:49:58.001Z,45.00
2022-08-19T12:51:29.888Z,43.80
2022-08-19T12:53:01.740Z,44.38
2022-08-19T12:54:33.656Z,45.44
2022-08-19T12:56:06.313Z,44.75
2022-08-19T12:57:41.878Z,44.33
2022-08-19T12:59:13.749Z,45.39
2022-08-19T13:00:45.671Z,44.78
2022-08-19T13:02:17.716Z,42.60
2022-08-19T13:03:49.599Z,44.29
2022-08-19T13:05:25.959Z,43.82
2022-08-19T13:06:57.994Z,42.96
2022-08-19T13:08:29.827Z,43.95
2022-08-19T13:10:02.173Z,43.51
2022-08-19T13:11:34.793Z,42.67
2022-08-19T13:13:09.725Z,46.10
2022-08-19T13:14:41.871Z,43.38
2022-08-19T13:16:14.353Z,44.79
2022-08-19T13:17:46.041Z,44.41
2022-08-19T13:19:24.251Z,44.30
2022-08-19T13:20:57.615Z,43.62
2022-08-19T13:22:29.466Z,44.71
2022-08-19T13:24:01.403Z,44.31
2022-08-19T13:25:33.378Z,43.27
2022-08-19T13:27:05.674Z,43.82
2022-08-19T13:28:56.573Z,41.79
2022-08-19T13:30:47.038Z,43.10
2022-08-19T13:32:37.375Z,42.97
2022-08-19T13:34:09.475Z,43.71
2022-08-19T13:35:52.929Z,45.21
2022-08-19T13:37:42.219Z,44.97
2022-08-19T13:39:14.140Z,44.21
2022-08-19T13:40:46.293Z,44.91
2022-08-19T13:42:19.799Z,45.68
2022-08-19T13:43:51.627Z,44.97
2022-08-19T13:45:25.572Z,44.29
2022-08-19T13:47:07.930Z,44.45
2022-08-19T13:48:40.010Z,43.86
2022-08-19T13:50:13.705Z,42.96
2022-08-19T13:51:46.019Z,44.84
2022-08-19T13:53:19.604Z,43.49
2022-08-19T13:54:51.438Z,43.76
2022-08-19T13:56:26.256Z,42.67
2022-08-19T13:58:01.201Z,43.65
2022-08-19T13:59:33.516Z,43.54
2022-08-19T14:01:05.934Z,43.66
2022-08-19T14:02:39.079Z,45.70
2022-08-19T14:04:10.882Z,45.92
2022-08-19T14:05:42.835Z,47.03
2022-08-19T14:07:15.272Z,46.31
2022-08-19T14:08:47.393Z,44.64
2022-08-19T14:10:20.157Z,44.95
2022-08-19T14:11:52.453Z,44.59
2022-08-19T14:13:24.498Z,45.64
2022-08-19T14:14:56.380Z,45.70
2022-08-19T14:16:28.447Z,46.60
2022-08-19T14:18:00.569Z,46.92
2022-08-19T14:19:33.098Z,47.16
2022-08-19T14:21:06.304Z,47.04
2022-08-19T14:22:38.784Z,45.37
2022-08-19T14:24:11.991Z,46.77
2022-08-19T14:25:44.351Z,46.36
2022-08-19T14:27:16.210Z,46.16
2022-08-19T14:28:48.206Z,48.64
2022-08-19T14:30:31.750Z,46.89
2022-08-19T14:32:03.871Z,48.26
2022-08-19T14:33:35.790Z,48.27
2022-08-19T14:35:08.567Z,47.14
2022-08-19T14:36:40.432Z,48.42
2022-08-19T14:38:17.475Z,46.75
2022-08-19T14:39:49.679Z,48.12
2022-08-19T14:41:23.504Z,47.08
2022-08-19T14:43:04.912Z,46.72
2022-08-19T14:44:37.098Z,48.09
2022-08-19T14:46:09.265Z,47.50
2022-08-19T14:47:42.421Z,47.55
2022-08-19T14:49:17.461Z,49.38
2022-08-19T14:50:49.663Z,48.19
2022-08-19T14:52:21.720Z,48.71
2022-08-19T14:53:55.019Z,48.68
2022-08-19T14:55:26.880Z,49.40
2022-08-19T14:56:58.889Z,48.95
2022-08-19T14:58:30.983Z,48.05
2022-08-19T15:00:03.718Z,47.44
2022-08-19T15:01:35.995Z,47.97
2022-08-19T15:03:07.891Z,49.79
2022-08-19T15:04:40.087Z,48.62
2022-08-19T15:06:12.908Z,49.47
2022-08-19T15:07:45.431Z,47.88
2022-08-19T15:09:20.182Z,48.93
2022-08-19T15:10:53.050Z,48.54
2022-08-19T15:12:25.529Z,49.84
2022-08-19T15:13:57.600Z,49.07
2022-08-19T15:15:29.431Z,47.88
2022-08-19T15:17:03.143Z,49.67
2022-08-19T15:18:36.119Z,49.98
2022-08-19T15:20:08.895Z,48.80
2022-08-19T15:21:40.811Z,49.24
2022-08-19T15:23:15.416Z,48.79
2022-08-19T15:24:48.241Z,49.37
2022-08-19T15:26:22.065Z,50.01
2022-08-19T15:27:54.218Z,50.08
2022-08-19T15:29:27.326Z,48.26
2022-08-19T15:30:59.497Z,49.08
2022-08-19T15:32:31.562Z,50.16
2022-08-19T15:34:04.328Z,49.19
2022-08-19T15:35:36.242Z,49.50
2022-08-19T15:37:08.543Z,49.82
2022-08-19T15:38:45.891Z,50.26
2022-08-19T15:40:18.488Z,50.16
2022-08-19T15:41:50.303Z,49.21
2022-08-19T15:43:22.511Z,50.18
2022-08-19T15:44:54.379Z,50.23
2022-08-19T15:46:31.701Z,50.95
2022-08-19T15:48:04.944Z,50.97
2022-08-19T15:49:36.831Z,50.00
2022-08-19T15:51:09.074Z,50.37
2022-08-19T15:52:55.370Z,49.39
2022-08-19T15:54:27.354Z,49.17
2022-08-19T15:55:59.146Z,49.90
2022-08-19T15:57:30.995Z,51.11
2022-08-19T15:59:21.467Z,50.25
2022-08-19T16:01:26.862Z,50.57
2022-08-19T16:03:17.843Z,50.53
2022-08-19T16:05:08.680Z,51.50
2022-08-19T16:06:42.102Z,52.71
2022-08-19T16:08:15.337Z,51.66
2022-08-19T16:09:47.214Z,52.37
2022-08-19T16:11:22.739Z,52.30
2022-08-19T16:12:58.387Z,53.00
2022-08-19T16:14:32.714Z,52.37
2022-08-19T16:16:04.634Z,53.27
2022-08-19T16:17:36.702Z,55.78
2022-08-19T16:19:11.909Z,56.73
2022-08-19T16:20:44.468Z,57.23
2022-08-19T16:22:16.937Z,56.77
2022-08-19T16:23:49.875Z,58.69
2022-08-19T16:25:29.163Z,57.24
2022-08-19T16:27:01.650Z,56.42
2022-08-19T16:28:33.571Z,57.61
2022-08-19T16:30:06.065Z,56.93
2022-08-19T16:31:38.119Z,56.62
2022-08-19T16:33:11.728Z,54.92
2022-08-19T16:34:43.978Z,55.46
2022-08-19T16:36:16.158Z,56.22
2022-08-19T16:37:50.195Z,54.36
2022-08-19T16:39:23.833Z,54.24
2022-08-19T16:40:57.002Z,54.70
2022-08-19T16:42:28.978Z,53.60
2022-08-19T16:44:00.886Z,53.81
2022-08-19T16:45:32.801Z,54.16
2022-08-19T16:47:04.777Z,54.93
2022-08-19T16:48:43.017Z,54.19
2022-08-19T16:50:22.325Z,55.62
2022-08-19T16:52:02.753Z,54.56
2022-08-19T16:53:35.951Z,53.44
2022-08-19T16:55:08.614Z,54.52
2022-08-19T16:56:40.483Z,55.55
2022-08-19T16:58:12.432Z,55.46
2022-08-19T16:59:48.707Z,55.34
2022-08-19T17:01:21.638Z,55.31
2022-08-19T17:02:53.671Z,54.96
2022-08-19T17:04:25.615Z,55.27
2022-08-19T17:06:02.871Z,55.66
2022-08-19T17:07:34.830Z,55.96
2022-08-19T17:09:07.853Z,54.80
2022-08-19T17:10:39.985Z,56.08
2022-08-19T17:12:12.787Z,54.41
2022-08-19T17:13:44.649Z,56.00
2022-08-19T17:15:19.793Z,55.27
2022-08-19T17:16:51.815Z,56.02
2022-08-19T17:18:23.909Z,56.49
2022-08-19T17:19:55.717Z,57.33
2022-08-19T17:21:29.915Z,57.04
2022-08-19T17:23:01.745Z,56.48
2022-08-19T17:24:33.536Z,57.12
2022-08-19T17:26:05.667Z,57.39
2022-08-19T17:27:40.528Z,57.26
2022-08-19T17:29:12.530Z,57.32
2022-08-19T17:30:44.639Z,57.77
2022-08-19T17:32:16.488Z,57.79
2022-08-19T17:33:59.041Z,58.54
2022-08-19T17:35:31.086Z,58.19
2022-08-19T17:37:05.618Z,58.50
2022-08-19T17:38:38.734Z,58.27
2022-08-19T17:40:11.145Z,58.56
2022-08-19T17:41:44.283Z,58.46
2022-08-19T17:43:32.358Z,57.80
2022-08-19T17:45:06.724Z,58.62
2022-08-19T17:46:38.551Z,57.65
2022-08-19T17:48:14.283Z,57.57
2022-08-19T17:49:46.057Z,58.82
2022-08-19T17:51:25.856Z,57.38
2022-08-19T17:52:58.197Z,58.53
2022-08-19T17:54:33.626Z,59.60
2022-08-19T17:56:05.923Z,58.42
2022-08-19T17:57:44.821Z,59.10
2022-08-19T17:59:18.689Z,59.63
2022-08-19T18:00:53.309Z,58.82
2022-08-19T18:02:26.140Z,59.19
2022-08-19T18:04:01.940Z,59.33
2022-08-19T18:05:41.223Z,59.01
2022-08-19T18:07:13.362Z,59.98
2022-08-19T18:08:46.478Z,59.64
2022-08-19T18:10:20.047Z,59.89
2022-08-19T18:11:53.874Z,59.26
2022-08-19T18:13:25.839Z,59.32
2022-08-19T18:14:58.656Z,59.55
2022-08-19T18:16:32.585Z,59.92
2022-08-19T18:18:04.512Z,59.40
2022-08-19T18:19:47.941Z,60.60
2022-08-19T18:21:19.939Z,59.30
2022-08-19T18:22:51.833Z,60.66
2022-08-19T18:24:26.599Z,60.90
2022-08-19T18:25:58.455Z,60.92
2022-08-19T18:27:33.167Z,60.45
2022-08-19T18:29:05.707Z,61.33
2022-08-19T18:30:37.449Z,60.91
2022-08-19T18:32:12.852Z,60.97
2022-08-19T18:33:47.224Z,61.65
2022-08-19T18:35:23.128Z,61.75
2022-08-19T18:36:54.936Z,62.07
2022-08-19T18:38:45.549Z,63.25
2022-08-19T18:40:39.875Z,65.42
2022-08-19T18:42:35.461Z,68.23
2022-08-19T18:44:26.035Z,71.55
2022-08-19T18:46:36.913Z,72.80
2022-08-19T18:48:30.524Z,73.71
2022-08-19T18:50:08.513Z,74.66
2022-08-19T18:51:43.826Z,73.97
2022-08-19T18:53:16.362Z,74.18
2022-08-19T18:54:48.442Z,73.96
2022-08-19T18:56:20.419Z,74.38
2022-08-19T18:57:54.390Z,74.84
2022-08-19T18:59:28.307Z,76.26
2022-08-19T19:01:25.830Z,77.66
2022-08-19T19:02:58.191Z,79.98
2022-08-19T19:04:37.486Z,79.69
2022-08-19T19:06:09.462Z,81.16
2022-08-19T19:07:44.864Z,81.04
2022-08-19T19:09:21.222Z,81.89
2022-08-19T19:10:53.180Z,81.95
2022-08-19T19:12:30.996Z,82.42
2022-08-19T19:14:05.008Z,81.88
2022-08-19T19:15:37.566Z,82.38
2022-08-19T19:17:13.917Z,82.60
2022-08-19T19:18:55.313Z,82.33
2022-08-19T19:20:36.148Z,81.68
2022-08-19T19:22:19.350Z,81.21
2022-08-19T19:23:52.576Z,80.78
2022-08-19T19:25:24.386Z,81.26
2022-08-19T19:27:05.930Z,82.22
2022-08-19T19:28:43.465Z,82.48
2022-08-19T19:30:16.287Z,82.83
2022-08-19T19:31:51.519Z,83.16
2022-08-19T19:33:23.811Z,83.67
2022-08-19T19:34:55.779Z,84.77
2022-08-19T19:36:30.430Z,84.68
2022-08-19T19:38:02.349Z,84.49
2022-08-19T19:39:46.424Z,84.64
2022-08-19T19:41:26.903Z,85.24
2022-08-19T19:43:00.078Z,85.67
2022-08-19T19:44:34.644Z,85.45
2022-08-19T19:46:06.896Z,86.41
2022-08-19T19:47:39.657Z,85.88
2022-08-19T19:49:12.057Z,86.35
2022-08-19T19:50:45.202Z,86.36
2022-08-19T19:52:17.551Z,85.69
2022-08-19T19:53:49.585Z,86.87
2022-08-19T19:55:21.548Z,87.38
2022-08-19T19:56:54.085Z,87.42
2022-08-19T19:58:28.743Z,86.69
2022-08-19T20:00:01.317Z,87.07
2022-08-19T20:01:33.698Z,88.21
2022-08-19T20:03:06.996Z,88.34
2022-08-19T20:04:38.837Z,88.35
2022-08-19T20:06:13.361Z,88.21
2022-08-19T20:08:03.845Z,89.08
2022-08-19T20:09:58.384Z,89.19
2022-08-19T20:11:43.241Z,88.94
2022-08-19T20:13:15.761Z,88.57
2022-08-19T20:14:47.712Z,90.01
2022-08-19T20:16:19.624Z,90.49
2022-08-19T20:17:51.571Z,89.98
2022-08-19T20:19:26.984Z,88.81
2022-08-19T20:20:59.856Z,88.90